Pagina principale
METAR-TAF:

METAR-TAF

Aeroporti :

Aeroporto di Pisa-San Giusto

Pisa, Italia

latitudine: 43-41N, longitudine: 010-23E, altezza: 2 m

Osservazione

Il bollettino è stato emesso 42 minuti fa, alle 21:45 UTC
Vento 2 kt da ovest
Temperature 16°C
Umidità 100%
Pressione 1020 hPa
Visibilità 10 km o più
nessuna nube inferiore a 1500 m e nessun cumulonembo

METAR: LIRP 162145Z 26002KT CAVOK 16/16 Q1020 NOSIG

Ora: 00:27 (22:27 UTC)

Previsione

Il bollettino è stato emesso 5 ore e 27 minuti fa, alle 17:00 UTC
Previsione valida dal 16 alle 18 UTC al 17 alle 18 UTC
Vento 3 kt da direzioni variabili
Visibilità 10 km o più
nessuna nube inferiore a 1500 m e nessun cumulonembo
Temporaneamente
dal 17 alle 01 UTC al 17 alle 05 UTC
Visibilità: 5000 m
foschia
Evoluzione graduale
dal 17 alle 11 UTC al 17 alle 13 UTC
Vento 10 kt da ovest

TAF: LIRP 161700Z 1618/1718 VRB03KT CAVOK TEMPO 1701/1705 5000 BR NSC BECMG 1711/1713 27010KT

Osservazioni e previsioni meteorologiche di più di 4000 aeroporti (messaggi METAR e TAF).

Le stazioni disponibili sono rappresentate dai dischi gialli e rossi sulla carta.

Puntare il mouse per vedere il nome della stazione.

Clicca sopra per visualizzare le osservazioni e previsioni meteorologiche.

Per cambiare la mappa : fare clic sui pulsanti verdi con una croce nera per ingrandire, il pulsante verde con un trattino per diminuire, o sulla freccia verde per le mappe adiacenti.


METAR-TAF: